createdAt,value
2023-01-13T00:02:15.624Z,67.81
2023-01-13T00:04:49.810Z,67.69
2023-01-13T00:07:23.296Z,67.67
2023-01-13T00:09:56.574Z,67.75
2023-01-13T00:12:29.695Z,67.57
2023-01-13T00:15:02.955Z,67.29
2023-01-13T00:17:35.813Z,67.27
2023-01-13T00:20:10.176Z,67.40
2023-01-13T00:22:43.249Z,67.41
2023-01-13T00:25:20.734Z,67.35
2023-01-13T00:27:53.675Z,67.32
2023-01-13T00:30:26.931Z,67.16
2023-01-13T00:32:59.875Z,67.15
2023-01-13T00:35:32.882Z,67.25
2023-01-13T00:38:05.981Z,67.42
2023-01-13T00:40:39.094Z,67.79
2023-01-13T00:43:27.607Z,67.79
2023-01-13T00:46:00.657Z,67.92
2023-01-13T00:48:34.401Z,68.15
2023-01-13T00:51:10.383Z,68.09
2023-01-13T00:53:45.602Z,68.13
2023-01-13T00:56:34.152Z,68.05
2023-01-13T00:59:15.218Z,68.22
2023-01-13T01:01:48.362Z,68.10
2023-01-13T01:04:21.184Z,68.15
2023-01-13T01:06:54.252Z,68.22
2023-01-13T01:09:34.427Z,68.25
2023-01-13T01:12:07.644Z,68.14
2023-01-13T01:14:40.482Z,68.19
2023-01-13T01:17:13.353Z,68.49
2023-01-13T01:19:46.416Z,69.22
2023-01-13T01:22:19.732Z,68.84
2023-01-13T01:24:53.207Z,68.96
2023-01-13T01:27:26.346Z,68.96
2023-01-13T01:29:59.222Z,69.12
2023-01-13T01:32:32.484Z,69.46
2023-01-13T01:35:05.575Z,69.37
2023-01-13T01:37:38.740Z,69.54
2023-01-13T01:40:12.363Z,69.76
2023-01-13T01:43:04.190Z,69.85
2023-01-13T01:45:37.138Z,69.74
2023-01-13T01:48:11.266Z,69.99
2023-01-13T01:50:44.219Z,69.79
2023-01-13T01:53:24.567Z,69.76
2023-01-13T01:55:59.567Z,69.65
2023-01-13T01:58:37.307Z,69.69
2023-01-13T02:01:11.057Z,69.53
2023-01-13T02:03:52.878Z,69.70
2023-01-13T02:06:27.036Z,69.78
2023-01-13T02:09:01.227Z,69.83
2023-01-13T02:11:57.320Z,69.76
2023-01-13T02:14:32.648Z,69.88
2023-01-13T02:17:21.127Z,69.89
2023-01-13T02:20:18.401Z,69.99
2023-01-13T02:23:44.040Z,69.99
2023-01-13T02:26:34.321Z,69.97
2023-01-13T02:30:05.921Z,69.95
2023-01-13T02:33:34.896Z,69.72
2023-01-13T02:36:16.942Z,69.45
2023-01-13T02:39:10.220Z,69.31
2023-01-13T02:42:11.565Z,69.13
2023-01-13T02:45:03.599Z,69.55
2023-01-13T02:47:41.303Z,69.45
2023-01-13T02:50:22.233Z,69.56
2023-01-13T02:53:04.404Z,69.56
2023-01-13T02:55:48.092Z,69.46
2023-01-13T02:58:26.000Z,69.46
2023-01-13T03:00:59.175Z,69.50
2023-01-13T03:03:32.339Z,69.47
2023-01-13T03:06:32.044Z,69.54
2023-01-13T03:09:10.925Z,69.75
2023-01-13T03:12:01.131Z,69.77
2023-01-13T03:14:48.333Z,70.21
2023-01-13T03:17:43.692Z,70.28
2023-01-13T03:20:27.651Z,70.24
2023-01-13T03:23:06.456Z,70.22
2023-01-13T03:25:51.639Z,70.27
2023-01-13T03:28:42.415Z,70.20
2023-01-13T03:31:22.751Z,70.03
2023-01-13T03:34:03.097Z,70.46
2023-01-13T03:36:38.666Z,70.35
2023-01-13T03:39:17.965Z,70.08
2023-01-13T03:42:04.275Z,70.16
2023-01-13T03:45:20.791Z,70.15
2023-01-13T03:48:00.336Z,70.23
2023-01-13T03:50:39.311Z,70.36
2023-01-13T03:53:51.716Z,70.57
2023-01-13T03:56:44.855Z,70.31
2023-01-13T03:59:24.961Z,70.87
2023-01-13T04:02:05.391Z,71.67
2023-01-13T04:04:44.612Z,71.15
2023-01-13T04:07:43.203Z,71.17
2023-01-13T04:10:21.761Z,71.31
2023-01-13T04:13:07.235Z,71.56
2023-01-13T04:15:45.816Z,71.68
2023-01-13T04:18:21.376Z,71.66
2023-01-13T04:20:56.088Z,71.41
2023-01-13T04:23:29.760Z,71.25
2023-01-13T04:26:03.070Z,71.32
2023-01-13T04:28:36.225Z,71.10
2023-01-13T04:31:09.487Z,70.94
2023-01-13T04:33:43.027Z,70.68
2023-01-13T04:36:16.253Z,70.45
2023-01-13T04:38:49.416Z,70.30
2023-01-13T04:41:22.599Z,70.45
2023-01-13T04:43:55.825Z,70.54
2023-01-13T04:46:28.625Z,70.39
2023-01-13T04:49:01.783Z,70.16
2023-01-13T04:51:34.718Z,70.30
2023-01-13T04:54:07.836Z,70.50
2023-01-13T04:56:41.049Z,70.57
2023-01-13T04:59:15.027Z,70.52
2023-01-13T05:01:48.266Z,70.55
2023-01-13T05:04:21.631Z,70.63
2023-01-13T05:06:54.638Z,70.32
2023-01-13T05:09:28.875Z,70.09
2023-01-13T05:12:20.437Z,70.10
2023-01-13T05:15:12.161Z,70.00
2023-01-13T05:17:47.057Z,69.89
2023-01-13T05:20:20.999Z,69.83
2023-01-13T05:23:12.678Z,69.86
2023-01-13T05:25:46.802Z,69.80
2023-01-13T05:28:19.840Z,69.87
2023-01-13T05:30:53.082Z,70.23
2023-01-13T05:33:26.363Z,70.04
2023-01-13T05:36:03.754Z,70.14
2023-01-13T05:38:36.759Z,70.10
2023-01-13T05:41:28.480Z,70.06
2023-01-13T05:44:01.730Z,70.02
2023-01-13T05:46:35.036Z,70.13
2023-01-13T05:49:07.987Z,70.17
2023-01-13T05:51:40.925Z,70.07
2023-01-13T05:54:14.411Z,69.89
2023-01-13T05:56:47.674Z,69.86
2023-01-13T05:59:20.651Z,69.78
2023-01-13T06:01:53.916Z,69.48
2023-01-13T06:04:26.850Z,69.12
2023-01-13T06:07:00.135Z,68.94
2023-01-13T06:09:33.549Z,68.87
2023-01-13T06:12:06.961Z,68.44
2023-01-13T06:14:42.510Z,68.31
2023-01-13T06:17:17.572Z,68.43
2023-01-13T06:19:51.575Z,68.61
2023-01-13T06:22:26.418Z,68.25
2023-01-13T06:24:59.732Z,68.11
2023-01-13T06:27:33.308Z,68.07
2023-01-13T06:30:06.359Z,68.18
2023-01-13T06:32:45.233Z,67.98
2023-01-13T06:35:20.947Z,68.23
2023-01-13T06:37:57.309Z,68.50
2023-01-13T06:40:30.352Z,68.54
2023-01-13T06:43:17.318Z,68.47
2023-01-13T06:45:54.608Z,67.79
2023-01-13T06:48:33.905Z,67.97
2023-01-13T06:51:08.703Z,68.41
2023-01-13T06:53:42.105Z,68.32
2023-01-13T06:56:15.491Z,67.25
2023-01-13T06:58:48.325Z,67.21
2023-01-13T07:01:21.569Z,67.06
2023-01-13T07:03:55.526Z,67.48
2023-01-13T07:06:29.286Z,67.57
2023-01-13T07:09:03.084Z,67.73
2023-01-13T07:11:36.339Z,68.04
2023-01-13T07:14:28.323Z,68.18
2023-01-13T07:17:01.376Z,68.16
2023-01-13T07:19:38.569Z,68.53
2023-01-13T07:22:11.874Z,68.92
2023-01-13T07:24:45.096Z,69.14
2023-01-13T07:27:18.372Z,69.29
2023-01-13T07:29:51.510Z,69.46
2023-01-13T07:32:24.013Z,69.39
2023-01-13T07:34:59.156Z,69.36
2023-01-13T07:37:33.578Z,69.09
2023-01-13T07:40:10.434Z,68.39
2023-01-13T07:43:01.598Z,68.16
2023-01-13T07:45:34.764Z,68.24
2023-01-13T07:48:08.670Z,67.72
2023-01-13T07:50:44.173Z,67.34
2023-01-13T07:53:17.057Z,67.72
2023-01-13T07:55:51.079Z,67.86
2023-01-13T07:58:23.735Z,67.86
2023-01-13T08:00:58.455Z,68.16
2023-01-13T08:03:31.524Z,68.34
2023-01-13T08:06:05.589Z,68.13
2023-01-13T08:08:38.707Z,67.92
2023-01-13T08:11:11.551Z,67.55
2023-01-13T08:13:44.121Z,67.66
2023-01-13T08:16:18.208Z,67.80
2023-01-13T08:18:51.779Z,67.81
2023-01-13T08:21:24.962Z,67.94
2023-01-13T08:23:57.881Z,68.22
2023-01-13T08:26:31.162Z,68.51
2023-01-13T08:29:04.231Z,68.53
2023-01-13T08:31:37.002Z,68.71
2023-01-13T08:34:10.280Z,68.52
2023-01-13T08:36:44.038Z,68.67
2023-01-13T08:39:16.669Z,68.63
2023-01-13T08:41:59.401Z,68.61
2023-01-13T08:44:34.520Z,68.64
2023-01-13T08:47:08.363Z,68.48
2023-01-13T08:49:42.218Z,68.55
2023-01-13T08:52:16.794Z,68.53
2023-01-13T08:54:51.295Z,68.77
2023-01-13T08:57:24.345Z,68.73
2023-01-13T08:59:56.965Z,68.70
2023-01-13T09:02:30.056Z,68.57
2023-01-13T09:05:05.832Z,68.52
2023-01-13T09:07:40.930Z,67.70
2023-01-13T09:10:14.095Z,67.67
2023-01-13T09:13:05.811Z,67.03
2023-01-13T09:15:39.851Z,67.13
2023-01-13T09:18:13.025Z,67.64
2023-01-13T09:20:45.951Z,67.88
2023-01-13T09:23:19.893Z,68.15
2023-01-13T09:25:54.713Z,68.24
2023-01-13T09:28:27.805Z,69.64
2023-01-13T09:31:04.135Z,69.04
2023-01-13T09:33:55.839Z,69.02
2023-01-13T09:36:29.870Z,68.96
2023-01-13T09:39:03.087Z,69.18
2023-01-13T09:42:04.929Z,69.33
2023-01-13T09:44:56.907Z,69.81
2023-01-13T09:47:48.158Z,70.04
2023-01-13T09:51:04.745Z,69.61
2023-01-13T09:53:49.569Z,69.67
2023-01-13T09:56:23.817Z,69.53
2023-01-13T09:58:57.859Z,69.32
2023-01-13T10:01:49.466Z,68.97
2023-01-13T10:04:23.587Z,68.60
2023-01-13T10:07:05.548Z,68.44
2023-01-13T10:09:59.533Z,68.36
2023-01-13T10:12:53.157Z,68.55
2023-01-13T10:15:29.197Z,68.23
2023-01-13T10:18:10.175Z,67.97
2023-01-13T10:20:59.077Z,67.54
2023-01-13T10:23:57.233Z,67.65
2023-01-13T10:26:41.517Z,66.45
2023-01-13T10:29:28.636Z,66.84
2023-01-13T10:32:03.617Z,65.94
2023-01-13T10:34:57.789Z,65.93
2023-01-13T10:37:32.147Z,66.03
2023-01-13T10:40:08.642Z,66.23
2023-01-13T10:42:43.606Z,65.44
2023-01-13T10:45:29.065Z,64.70
2023-01-13T10:48:17.122Z,65.11
2023-01-13T10:50:52.256Z,65.48
2023-01-13T10:53:31.611Z,62.93
2023-01-13T10:56:07.657Z,64.08
2023-01-13T10:58:41.277Z,63.14
2023-01-13T11:01:31.030Z,63.97
2023-01-13T11:04:19.497Z,64.43
2023-01-13T11:06:52.829Z,62.86
2023-01-13T11:09:27.169Z,63.15
2023-01-13T11:12:06.075Z,62.99
2023-01-13T11:14:43.702Z,63.99
2023-01-13T11:17:34.186Z,64.40
2023-01-13T11:20:22.842Z,64.11
2023-01-13T11:23:01.150Z,64.00
2023-01-13T11:25:47.460Z,64.28
2023-01-13T11:28:49.150Z,64.79
2023-01-13T11:31:36.757Z,64.27
2023-01-13T11:34:21.637Z,64.38
2023-01-13T11:36:57.489Z,64.86
2023-01-13T11:39:50.483Z,65.39
2023-01-13T11:42:48.592Z,65.43
2023-01-13T11:45:31.917Z,65.09
2023-01-13T11:48:06.158Z,64.78
2023-01-13T11:50:54.654Z,64.11
2023-01-13T11:54:03.913Z,63.90
2023-01-13T11:57:03.756Z,64.55
2023-01-13T11:59:49.906Z,64.72
2023-01-13T12:02:37.273Z,64.84
2023-01-13T12:05:21.334Z,64.68
2023-01-13T12:08:26.873Z,64.74
2023-01-13T12:11:11.825Z,64.93
2023-01-13T12:14:02.986Z,65.04
2023-01-13T12:16:36.319Z,64.90
2023-01-13T12:19:28.588Z,64.89
2023-01-13T12:22:22.624Z,64.88
2023-01-13T12:25:23.891Z,65.23
2023-01-13T12:28:19.664Z,65.01
2023-01-13T12:31:05.079Z,64.98
2023-01-13T12:33:56.071Z,65.08
2023-01-13T12:36:44.896Z,65.25
2023-01-13T12:39:35.597Z,65.22
2023-01-13T12:42:42.516Z,65.22
2023-01-13T12:45:16.841Z,65.23
2023-01-13T12:47:51.798Z,65.22
2023-01-13T12:50:26.029Z,65.06
2023-01-13T12:53:03.535Z,65.04
2023-01-13T12:55:37.422Z,64.98
2023-01-13T12:58:13.150Z,65.17
2023-01-13T13:00:49.050Z,65.28
2023-01-13T13:03:38.461Z,65.27
2023-01-13T13:06:24.822Z,65.19
2023-01-13T13:09:16.440Z,65.46
2023-01-13T13:11:59.873Z,65.10
2023-01-13T13:15:04.224Z,65.34
2023-01-13T13:17:37.621Z,65.56
2023-01-13T13:20:47.145Z,66.03
2023-01-13T13:23:39.759Z,65.63
2023-01-13T13:26:42.831Z,65.97
2023-01-13T13:29:46.955Z,66.19
2023-01-13T13:32:36.785Z,66.03
2023-01-13T13:35:53.820Z,65.68
2023-01-13T13:39:02.612Z,65.73
2023-01-13T13:41:57.540Z,65.58
2023-01-13T13:45:09.100Z,65.52
2023-01-13T13:47:42.697Z,65.59
2023-01-13T13:50:22.031Z,65.42
2023-01-13T13:53:09.720Z,65.37
2023-01-13T13:55:55.216Z,65.59
2023-01-13T13:58:37.513Z,65.90
2023-01-13T14:01:21.560Z,66.28
2023-01-13T14:04:27.695Z,66.49
2023-01-13T14:07:05.454Z,66.61
2023-01-13T14:09:47.246Z,66.77
2023-01-13T14:12:26.427Z,66.96
2023-01-13T14:15:00.846Z,67.00
2023-01-13T14:17:35.305Z,67.08
2023-01-13T14:20:15.303Z,66.96
2023-01-13T14:22:53.005Z,66.82
2023-01-13T14:25:34.887Z,66.94
2023-01-13T14:28:24.350Z,66.99
2023-01-13T14:30:58.017Z,67.08
2023-01-13T14:33:44.800Z,67.17
2023-01-13T14:36:23.674Z,66.98
2023-01-13T14:39:08.378Z,67.06
2023-01-13T14:41:54.956Z,67.10
2023-01-13T14:44:39.544Z,67.61
2023-01-13T14:47:34.555Z,67.63
2023-01-13T14:50:27.752Z,67.81
2023-01-13T14:53:01.287Z,68.04
2023-01-13T14:55:42.689Z,68.20
2023-01-13T14:58:29.516Z,68.10
2023-01-13T15:01:30.046Z,68.21
2023-01-13T15:04:26.559Z,68.28
2023-01-13T15:07:01.212Z,68.32
2023-01-13T15:09:46.103Z,68.27
2023-01-13T15:12:39.831Z,68.17
2023-01-13T15:15:38.636Z,68.10
2023-01-13T15:18:19.316Z,67.72
2023-01-13T15:20:54.875Z,67.65
2023-01-13T15:23:28.048Z,67.92
2023-01-13T15:26:03.103Z,67.83
2023-01-13T15:28:36.362Z,68.16
2023-01-13T15:31:09.215Z,68.37
2023-01-13T15:33:42.503Z,68.72
2023-01-13T15:36:31.353Z,69.13
2023-01-13T15:39:04.680Z,69.14
2023-01-13T15:41:56.264Z,68.91
2023-01-13T15:44:47.867Z,68.91
2023-01-13T15:47:22.595Z,68.93
2023-01-13T15:49:57.566Z,68.54
2023-01-13T15:52:30.911Z,68.36
2023-01-13T15:55:04.087Z,68.12
2023-01-13T15:57:40.346Z,67.94
2023-01-13T16:00:23.926Z,68.04
2023-01-13T16:02:57.000Z,67.63
2023-01-13T16:05:30.239Z,67.97
2023-01-13T16:08:03.432Z,68.13
2023-01-13T16:10:36.574Z,68.53
2023-01-13T16:13:09.478Z,68.80
2023-01-13T16:15:47.921Z,68.83
2023-01-13T16:18:26.318Z,68.83
2023-01-13T16:20:59.972Z,68.90
2023-01-13T16:23:33.068Z,68.64
2023-01-13T16:26:08.883Z,69.02
2023-01-13T16:28:42.055Z,68.93
2023-01-13T16:31:32.507Z,69.08
2023-01-13T16:34:07.136Z,68.97
2023-01-13T16:36:40.304Z,68.91
2023-01-13T16:39:24.179Z,69.17
2023-01-13T16:41:57.531Z,69.12
2023-01-13T16:44:30.868Z,69.19
2023-01-13T16:47:04.085Z,69.39
2023-01-13T16:49:36.590Z,69.39
2023-01-13T16:52:09.640Z,69.75
2023-01-13T16:54:43.253Z,69.74
2023-01-13T16:57:16.990Z,69.77
2023-01-13T16:59:49.687Z,70.30
2023-01-13T17:02:22.894Z,70.28
2023-01-13T17:04:56.287Z,70.16
2023-01-13T17:07:29.884Z,70.04
2023-01-13T17:10:03.829Z,69.97
2023-01-13T17:12:36.900Z,69.88
2023-01-13T17:15:10.704Z,69.81
2023-01-13T17:17:44.295Z,69.89
2023-01-13T17:20:18.836Z,69.76
2023-01-13T17:22:58.251Z,69.69
2023-01-13T17:25:33.099Z,69.43
2023-01-13T17:28:06.102Z,69.65
2023-01-13T17:30:41.506Z,70.00
2023-01-13T17:33:15.373Z,69.93
2023-01-13T17:35:48.719Z,69.96
2023-01-13T17:38:21.627Z,69.82
2023-01-13T17:40:54.504Z,69.99
2023-01-13T17:43:28.388Z,69.62
2023-01-13T17:46:01.538Z,69.55
2023-01-13T17:48:34.982Z,69.32
2023-01-13T17:51:13.121Z,69.42
2023-01-13T17:53:46.730Z,69.73
2023-01-13T17:56:20.327Z,69.80
2023-01-13T17:58:53.555Z,70.05
2023-01-13T18:01:31.373Z,70.21
2023-01-13T18:04:05.021Z,70.34
2023-01-13T18:06:38.264Z,70.15
2023-01-13T18:09:11.429Z,70.24
2023-01-13T18:11:47.243Z,70.07
2023-01-13T18:14:22.984Z,70.45
2023-01-13T18:16:56.121Z,70.24
2023-01-13T18:19:48.458Z,70.51
2023-01-13T18:22:39.978Z,70.58
2023-01-13T18:25:34.994Z,69.97
2023-01-13T18:28:07.978Z,69.92
2023-01-13T18:30:40.622Z,70.99
2023-01-13T18:33:13.515Z,70.62
2023-01-13T18:35:46.748Z,70.40
2023-01-13T18:38:23.988Z,70.50
2023-01-13T18:40:57.164Z,71.19
2023-01-13T18:43:29.955Z,71.67
2023-01-13T18:46:03.254Z,71.45
2023-01-13T18:48:36.033Z,71.69
2023-01-13T18:51:09.223Z,71.35
2023-01-13T18:53:42.315Z,71.23
2023-01-13T18:56:16.163Z,70.93
2023-01-13T18:58:55.675Z,71.03
2023-01-13T19:01:30.590Z,72.09
2023-01-13T19:04:05.907Z,71.98
2023-01-13T19:06:49.992Z,72.64
2023-01-13T19:09:29.111Z,72.56
2023-01-13T19:12:02.346Z,72.55
2023-01-13T19:14:37.717Z,72.49
2023-01-13T19:17:13.052Z,72.01
2023-01-13T19:19:48.781Z,72.72
2023-01-13T19:22:27.695Z,72.56
2023-01-13T19:25:01.938Z,72.13
2023-01-13T19:27:35.396Z,71.77
2023-01-13T19:30:09.215Z,72.22
2023-01-13T19:32:42.521Z,71.92
2023-01-13T19:35:18.394Z,71.82
2023-01-13T19:37:51.387Z,72.07
2023-01-13T19:40:24.129Z,71.98
2023-01-13T19:43:15.740Z,72.40
2023-01-13T19:45:51.984Z,72.07
2023-01-13T19:48:24.575Z,71.75
2023-01-13T19:50:57.195Z,72.12
2023-01-13T19:53:30.446Z,72.18
2023-01-13T19:56:03.232Z,72.24
2023-01-13T19:58:36.600Z,72.86
2023-01-13T20:01:10.583Z,72.55
2023-01-13T20:03:44.604Z,72.62
2023-01-13T20:06:17.380Z,72.54
2023-01-13T20:08:50.180Z,72.83
2023-01-13T20:11:23.252Z,72.86
2023-01-13T20:13:55.980Z,73.13
2023-01-13T20:16:29.695Z,72.85
2023-01-13T20:19:02.818Z,72.22
2023-01-13T20:21:35.588Z,72.24
2023-01-13T20:24:12.007Z,72.32
2023-01-13T20:26:44.875Z,71.89
2023-01-13T20:29:17.553Z,71.86
2023-01-13T20:31:50.616Z,72.93
2023-01-13T20:34:23.725Z,72.25
2023-01-13T20:36:57.387Z,72.84
2023-01-13T20:39:31.514Z,73.12
2023-01-13T20:42:23.775Z,72.75
2023-01-13T20:44:55.861Z,72.73
2023-01-13T20:47:31.452Z,72.44
2023-01-13T20:50:04.647Z,72.65
2023-01-13T20:52:38.072Z,72.38
2023-01-13T20:55:12.064Z,72.43
2023-01-13T20:57:49.122Z,72.73
2023-01-13T21:00:22.646Z,72.77
2023-01-13T21:02:56.428Z,72.56
2023-01-13T21:05:29.953Z,72.71
2023-01-13T21:08:03.070Z,72.61
2023-01-13T21:10:36.604Z,72.48
2023-01-13T21:13:28.902Z,72.20
2023-01-13T21:16:00.806Z,72.42
2023-01-13T21:18:53.284Z,72.68
2023-01-13T21:21:27.218Z,72.45
2023-01-13T21:24:00.176Z,72.72
2023-01-13T21:26:34.872Z,72.53
2023-01-13T21:29:07.628Z,72.83
2023-01-13T21:31:40.737Z,72.69
2023-01-13T21:34:13.826Z,72.54
2023-01-13T21:36:47.073Z,72.16
2023-01-13T21:39:20.135Z,72.30
2023-01-13T21:42:12.026Z,71.88
2023-01-13T21:45:03.355Z,72.25
2023-01-13T21:47:52.802Z,71.82
2023-01-13T21:50:30.687Z,72.01
2023-01-13T21:53:04.161Z,72.57
2023-01-13T21:55:38.494Z,72.65
2023-01-13T21:58:16.071Z,72.37
2023-01-13T22:00:50.376Z,72.46
2023-01-13T22:03:23.798Z,72.66
2023-01-13T22:05:59.430Z,72.53
2023-01-13T22:08:36.680Z,72.58
2023-01-13T22:11:09.802Z,72.49
2023-01-13T22:14:01.599Z,72.22
2023-01-13T22:16:40.153Z,72.10
2023-01-13T22:19:13.763Z,71.83
2023-01-13T22:21:46.955Z,71.74
2023-01-13T22:24:20.044Z,72.25
2023-01-13T22:26:53.298Z,72.08
2023-01-13T22:29:26.378Z,72.16
2023-01-13T22:31:59.593Z,72.61
2023-01-13T22:34:32.610Z,72.53
2023-01-13T22:37:05.790Z,72.90
2023-01-13T22:39:38.978Z,72.82
2023-01-13T22:42:12.273Z,73.00
2023-01-13T22:44:46.082Z,72.81
2023-01-13T22:47:19.287Z,73.02
2023-01-13T22:49:52.229Z,72.67
2023-01-13T22:52:28.053Z,72.48
2023-01-13T22:55:01.457Z,72.65
2023-01-13T22:57:46.967Z,73.14
2023-01-13T23:00:25.539Z,72.78
2023-01-13T23:02:58.747Z,73.12
2023-01-13T23:05:32.138Z,72.83
2023-01-13T23:08:05.271Z,73.20
2023-01-13T23:10:38.477Z,73.60
2023-01-13T23:13:11.847Z,73.28
2023-01-13T23:15:45.363Z,73.29
2023-01-13T23:18:18.267Z,72.94
2023-01-13T23:20:51.619Z,72.83
2023-01-13T23:23:25.485Z,72.59
2023-01-13T23:25:59.178Z,72.07
2023-01-13T23:28:32.273Z,72.06
2023-01-13T23:31:17.838Z,71.84
2023-01-13T23:33:51.808Z,72.13
2023-01-13T23:36:27.634Z,72.20
2023-01-13T23:39:01.568Z,71.55
2023-01-13T23:41:35.278Z,71.49
2023-01-13T23:44:08.843Z,72.02
2023-01-13T23:46:42.402Z,72.03
2023-01-13T23:49:15.770Z,72.27
2023-01-13T23:51:51.739Z,72.36
2023-01-13T23:54:24.934Z,72.53
2023-01-13T23:56:58.052Z,72.56
2023-01-13T23:59:31.329Z,72.81
